Current Weather

Prince Salman Bin Abdulaziz

Prince Salman Bin Abdulaziz, Saudi Arabia (OEDM)

Report from: Wednesday, May 29, 2024 7:00 AM UTC
Current time: Wednesday, May 29, 2024 8:01 AM UTC

Nearby weather – Weather history – Daily summaries
Weather forecast

Temperature38.0°C (100.4°F)
Heat index34.9°C (94.8°F)
Dew point-4.0°C (24.8°F)
Winds 16 kts (8.2 m/s, 18.4 mph) Southeast (130°)
Visibility5 mi. (8 km)
Altimeter29.88 in.Hg (1012 mB)
Relative humidity7 %
Density altitude2,715 ft. (828 m)
Flight conditions Marginal Visual Meteorological Conditions
Raw dataOEDM 290700Z 13016KT 8000 NSC 38/M04 Q1012
An error has occurred. This application may no longer respond until reloaded. Reload 🗙